الصفحة الرئيسية
METAR-TAF:

METAR-TAF

مطار :

كاستريس, سانت لوسيا

دائرة عرض: 14-01N, خط طول: 061-00W, ارتفاع: 2 متر

مراقبة الطقس الحالي

تاريخ ووقت الإصدار 39 دقيقة قبل الساعة 13:00UTC
ريح 9 عقدة من الشرق
درجة الحرارة 31°درجة مئوية
الرطوبة 66%
ضغط 1016 hPa
الرؤية 10 كم أو أكثر
غيوم قليلة على ارتفاع 2700 قدم

METAR: TLPC 251300Z 09009KT 9999 FEW027 31/24 Q1016 NOSIG

زمن: 09:39 (13:39 UTC)

توقعات

تاريخ ووقت الإصدار 2ساعات و 39 دقيقة قبل الساعة 11:00UTC
التوقعات صالحة من25 الساعة 12 UTC إلى 26 الساعة 12 UTC
ريح 8 عقدة من الشرق
الرؤية 10 كم أو أكثر
غيوم متفرقة على ارتفاع 2700 قدم

TAF: TLPC 251100Z 2512/2612 10008KT 9999 SCT027

أرصاد الطقس والتوقعات من أكثر من 4000 مطار (تقارير الطقس للمطار METAR والتنبؤ بالطقس بالمطارTAF).

المحطات المتاحة هي النقط الصفراء والحمراء على الخريطة.

حرك المؤشر فوق النقطة لمعرفة اسم المحطة.

ثم انقر لمعرفة أرصاد وتوقعات الطقس.

لتغيير الخارطة: اضغط على الأزرار الخضراء مع رمز الصليب الأسود للتكبير. على الزر الأخضر مع شرطة للتصغير، أو على الأسهم الخضراء للخرائط المجاورة.


METAR-TAF: